createdAt,value
2019-03-17T00:01:12.866Z,97859.80
2019-03-17T00:03:39.824Z,97862.92
2019-03-17T00:06:07.909Z,97854.88
2019-03-17T00:08:35.014Z,97849.82
2019-03-17T00:11:02.376Z,97850.31
2019-03-17T00:13:29.342Z,97839.40
2019-03-17T00:15:56.384Z,97841.08
2019-03-17T00:18:23.423Z,97840.27
2019-03-17T00:20:50.223Z,97833.17
2019-03-17T00:23:17.164Z,97844.39
2019-03-17T00:25:45.978Z,97839.00
2019-03-17T00:28:12.810Z,97837.47
2019-03-17T00:30:39.758Z,97832.61
2019-03-17T00:33:06.643Z,97824.91
2019-03-17T00:35:33.436Z,97819.45
2019-03-17T00:38:00.656Z,97815.91
2019-03-17T00:40:28.078Z,97811.63
2019-03-17T00:42:55.334Z,97814.67
2019-03-17T00:45:22.453Z,97807.98
2019-03-17T00:47:49.559Z,97805.17
2019-03-17T00:50:16.550Z,97803.45
2019-03-17T00:52:43.898Z,97809.27
2019-03-17T00:55:10.998Z,97795.08
2019-03-17T00:57:37.762Z,97793.32
2019-03-17T01:00:12.469Z,97783.52
2019-03-17T01:02:40.007Z,97788.28
2019-03-17T01:05:07.733Z,97780.45
2019-03-17T01:07:34.959Z,97779.53
2019-03-17T01:10:02.593Z,97774.41
2019-03-17T01:12:29.866Z,97772.39
2019-03-17T01:14:56.943Z,97768.05
2019-03-17T01:17:23.704Z,97755.31
2019-03-17T01:19:50.467Z,97748.92
2019-03-17T01:22:17.662Z,97746.34
2019-03-17T01:24:44.604Z,97749.50
2019-03-17T01:27:11.757Z,97750.63
2019-03-17T01:29:38.525Z,97746.73
2019-03-17T01:32:05.343Z,97741.03
2019-03-17T01:34:32.123Z,97732.09
2019-03-17T01:36:58.936Z,97731.53
2019-03-17T01:39:26.020Z,97721.53
2019-03-17T01:41:52.867Z,97723.69
2019-03-17T01:44:19.733Z,97717.12
2019-03-17T01:46:46.552Z,97716.70
2019-03-17T01:49:13.330Z,97719.48
2019-03-17T01:51:42.514Z,97714.44
2019-03-17T01:54:09.478Z,97714.63
2019-03-17T01:56:36.766Z,97707.83
2019-03-17T01:59:03.661Z,97712.76
2019-03-17T02:01:30.474Z,97700.77
2019-03-17T02:03:57.256Z,97701.48
2019-03-17T02:06:24.143Z,97686.98
2019-03-17T02:08:50.926Z,97686.52
2019-03-17T02:11:17.827Z,97673.44
2019-03-17T02:13:44.986Z,97677.87
2019-03-17T02:16:11.788Z,97682.41
2019-03-17T02:18:38.624Z,97679.80
2019-03-17T02:21:05.552Z,97681.40
2019-03-17T02:23:32.530Z,97680.72
2019-03-17T02:25:59.702Z,97677.72
2019-03-17T02:28:26.731Z,97675.09
2019-03-17T02:30:53.611Z,97675.36
2019-03-17T02:33:20.659Z,97674.45
2019-03-17T02:35:47.447Z,97671.65
2019-03-17T02:38:14.445Z,97678.96
2019-03-17T02:40:41.343Z,97669.63
2019-03-17T02:43:08.694Z,97663.59
2019-03-17T02:45:35.477Z,97664.72
2019-03-17T02:48:02.487Z,97662.47
2019-03-17T02:50:31.774Z,97659.39
2019-03-17T02:52:58.637Z,97656.64
2019-03-17T02:55:25.838Z,97657.73
2019-03-17T02:57:52.592Z,97655.98
2019-03-17T03:00:19.536Z,97658.36
2019-03-17T03:02:46.423Z,97654.77
2019-03-17T03:05:13.256Z,97649.56
2019-03-17T03:07:42.121Z,97640.39
2019-03-17T03:10:09.966Z,97643.72
2019-03-17T03:12:37.100Z,97644.38
2019-03-17T03:15:07.443Z,97643.81
2019-03-17T03:17:34.185Z,97635.45
2019-03-17T03:20:01.209Z,97631.70
2019-03-17T03:22:28.483Z,97619.84
2019-03-17T03:24:55.255Z,97627.22
2019-03-17T03:27:25.427Z,97628.78
2019-03-17T03:29:52.719Z,97614.33
2019-03-17T03:32:19.601Z,97616.90
2019-03-17T03:34:46.911Z,97617.80
2019-03-17T03:37:14.180Z,97616.72
2019-03-17T03:39:41.165Z,97619.69
2019-03-17T03:42:08.025Z,97610.67
2019-03-17T03:44:34.907Z,97621.81
2019-03-17T03:47:01.928Z,97614.71
2019-03-17T03:49:29.051Z,97611.67
2019-03-17T03:51:56.702Z,97606.58
2019-03-17T03:54:23.832Z,97605.27
2019-03-17T03:56:52.142Z,97604.39
2019-03-17T03:59:19.096Z,97603.13
2019-03-17T04:01:46.376Z,97602.29
2019-03-17T04:04:13.710Z,97598.75
2019-03-17T04:06:41.100Z,97600.87
2019-03-17T04:09:07.987Z,97594.15
2019-03-17T04:11:34.726Z,97596.53
2019-03-17T04:14:03.726Z,97593.80
2019-03-17T04:16:30.477Z,97596.44
2019-03-17T04:18:58.039Z,97585.14
2019-03-17T04:21:25.528Z,97589.55
2019-03-17T04:23:52.463Z,97575.69
2019-03-17T04:26:19.420Z,97578.38
2019-03-17T04:28:46.976Z,97576.73
2019-03-17T04:31:14.843Z,97571.20
2019-03-17T04:33:42.211Z,97566.03
2019-03-17T04:36:09.003Z,97582.66
2019-03-17T04:38:36.087Z,97590.24
2019-03-17T04:41:03.003Z,97575.34
2019-03-17T04:43:29.998Z,97580.54
2019-03-17T04:45:56.908Z,97581.06
2019-03-17T04:48:24.412Z,97585.68
2019-03-17T04:50:51.258Z,97589.41
2019-03-17T04:53:18.019Z,97584.69
2019-03-17T04:55:44.818Z,97585.28
2019-03-17T04:58:11.630Z,97589.21
2019-03-17T05:00:38.528Z,97589.48
2019-03-17T05:03:05.283Z,97585.96
2019-03-17T05:05:32.056Z,97593.94
2019-03-17T05:07:58.937Z,97588.92
2019-03-17T05:10:26.260Z,97601.27
2019-03-17T05:12:53.198Z,97592.28
2019-03-17T05:15:19.976Z,97603.61
2019-03-17T05:17:47.118Z,97589.22
2019-03-17T05:20:13.985Z,97587.14
2019-03-17T05:22:40.859Z,97594.50
2019-03-17T05:25:08.214Z,97585.09
2019-03-17T05:27:34.978Z,97586.89
2019-03-17T05:30:04.943Z,97589.50
2019-03-17T05:32:31.719Z,97576.23
2019-03-17T05:34:58.965Z,97568.98
2019-03-17T05:37:26.024Z,97571.02
2019-03-17T05:39:53.619Z,97568.97
2019-03-17T05:42:20.399Z,97582.33
2019-03-17T05:44:47.380Z,97584.45
2019-03-17T05:47:14.146Z,97575.48
2019-03-17T05:49:40.894Z,97585.13
2019-03-17T05:52:07.741Z,97586.23
2019-03-17T05:54:34.490Z,97589.14
2019-03-17T05:57:02.253Z,97588.12
2019-03-17T05:59:29.367Z,97594.42
2019-03-17T06:01:56.938Z,97599.62
2019-03-17T06:04:24.407Z,97607.34
2019-03-17T06:06:51.230Z,97601.16
2019-03-17T06:09:18.115Z,97593.66
2019-03-17T06:11:44.979Z,97597.38
2019-03-17T06:14:12.188Z,97602.27
2019-03-17T06:16:39.124Z,97610.43
2019-03-17T06:19:05.978Z,97606.30
2019-03-17T06:21:32.864Z,97618.47
2019-03-17T06:23:59.809Z,97614.97
2019-03-17T06:26:26.800Z,97608.16
2019-03-17T06:28:53.651Z,97605.39
2019-03-17T06:31:20.433Z,97609.30
2019-03-17T06:33:47.343Z,97606.91
2019-03-17T06:36:14.283Z,97606.06
2019-03-17T06:38:41.377Z,97616.37
2019-03-17T06:41:08.650Z,97612.28
2019-03-17T06:43:35.645Z,97612.28
2019-03-17T06:46:02.482Z,97614.02
2019-03-17T06:48:29.493Z,97613.66
2019-03-17T06:50:56.434Z,97626.09
2019-03-17T06:53:23.406Z,97623.56
2019-03-17T06:55:50.285Z,97627.57
2019-03-17T06:58:17.111Z,97620.78
2019-03-17T07:00:44.471Z,97626.56
2019-03-17T07:03:11.425Z,97623.81
2019-03-17T07:05:38.936Z,97620.44
2019-03-17T07:08:07.276Z,97630.83
2019-03-17T07:10:34.273Z,97632.73
2019-03-17T07:13:01.345Z,97635.80
2019-03-17T07:15:28.398Z,97637.80
2019-03-17T07:17:55.234Z,97636.55
2019-03-17T07:20:22.102Z,97643.48
2019-03-17T07:22:48.907Z,97643.88
2019-03-17T07:25:15.791Z,97638.98
2019-03-17T07:27:42.588Z,97647.34
2019-03-17T07:30:14.506Z,97645.19
2019-03-17T07:32:41.376Z,97652.63
2019-03-17T07:35:08.463Z,97651.28
2019-03-17T07:37:35.317Z,97643.44
2019-03-17T07:40:07.193Z,97645.07
2019-03-17T07:42:34.476Z,97640.25
2019-03-17T07:45:01.252Z,97640.02
2019-03-17T07:47:28.150Z,97631.21
2019-03-17T07:49:54.930Z,97633.43
2019-03-17T07:52:22.024Z,97638.75
2019-03-17T07:54:49.215Z,97635.03
2019-03-17T07:57:16.106Z,97629.13
2019-03-17T07:59:43.526Z,97623.95
2019-03-17T08:02:10.669Z,97624.41
2019-03-17T08:04:42.425Z,97621.91
2019-03-17T08:07:06.137Z,97617.48
2019-03-17T08:09:32.891Z,97603.56
2019-03-17T08:12:00.019Z,97602.20
2019-03-17T08:14:27.215Z,97605.36
2019-03-17T08:16:53.972Z,97602.93
2019-03-17T08:19:20.869Z,97602.57
2019-03-17T08:21:48.191Z,97609.66
2019-03-17T08:24:15.127Z,97609.84
2019-03-17T08:26:42.116Z,97609.91
2019-03-17T08:29:09.485Z,97609.28
2019-03-17T08:31:36.312Z,97615.08
2019-03-17T08:34:03.302Z,97610.20
2019-03-17T08:36:30.060Z,97613.94
2019-03-17T08:38:56.900Z,97605.30
2019-03-17T08:41:23.728Z,97610.48
2019-03-17T08:43:54.493Z,97597.98
2019-03-17T08:46:20.953Z,97605.55
2019-03-17T08:48:47.843Z,97610.70
2019-03-17T08:51:14.683Z,97615.00
2019-03-17T08:53:41.715Z,97613.95
2019-03-17T08:56:08.456Z,97619.78
2019-03-17T08:58:35.642Z,97614.30
2019-03-17T09:01:02.770Z,97623.41
2019-03-17T09:03:29.682Z,97610.86
2019-03-17T09:05:56.587Z,97611.64
2019-03-17T09:08:34.158Z,97614.83
2019-03-17T09:10:52.859Z,97612.72
2019-03-17T09:13:19.907Z,97611.87
2019-03-17T09:15:47.508Z,97626.17
2019-03-17T09:18:14.788Z,97622.22
2019-03-17T09:20:41.895Z,97624.45
2019-03-17T09:23:08.714Z,97622.73
2019-03-17T09:25:35.583Z,97618.69
2019-03-17T09:28:02.602Z,97622.79
2019-03-17T09:30:29.476Z,97621.91
2019-03-17T09:32:56.623Z,97623.17
2019-03-17T09:35:23.992Z,97617.92
2019-03-17T09:37:50.763Z,97613.94
2019-03-17T09:40:19.188Z,97614.92
2019-03-17T09:42:45.958Z,97623.72
2019-03-17T09:45:14.709Z,97609.73
2019-03-17T09:47:44.945Z,97619.77
2019-03-17T09:50:14.114Z,97611.94
2019-03-17T09:52:40.927Z,97620.68
2019-03-17T09:55:08.670Z,97610.47
2019-03-17T09:57:35.936Z,97611.27
2019-03-17T10:00:13.480Z,97603.14
2019-03-17T10:02:40.697Z,97599.27
2019-03-17T10:05:09.106Z,97612.73
2019-03-17T10:07:36.133Z,97601.95
2019-03-17T10:10:12.731Z,97597.63
2019-03-17T10:12:40.068Z,97598.77
2019-03-17T10:15:11.397Z,97591.08
2019-03-17T10:17:38.438Z,97582.22
2019-03-17T10:20:12.880Z,97594.78
2019-03-17T10:22:40.029Z,97582.34
2019-03-17T10:25:09.617Z,97597.27
2019-03-17T10:27:36.524Z,97589.42
2019-03-17T10:30:14.760Z,97576.15
2019-03-17T10:32:41.876Z,97579.17
2019-03-17T10:35:08.925Z,97579.31
2019-03-17T10:37:36.207Z,97582.80
2019-03-17T10:40:13.527Z,97569.63
2019-03-17T10:42:40.426Z,97589.11
2019-03-17T10:45:09.924Z,97571.33
2019-03-17T10:47:37.319Z,97574.50
2019-03-17T10:50:13.031Z,97569.87
2019-03-17T10:52:40.180Z,97570.42
2019-03-17T10:55:08.963Z,97573.55
2019-03-17T10:57:36.456Z,97582.59
2019-03-17T11:00:21.379Z,97572.36
2019-03-17T11:02:48.410Z,97594.45
2019-03-17T11:05:15.728Z,97582.88
2019-03-17T11:07:43.147Z,97582.91
2019-03-17T11:10:13.542Z,97582.26
2019-03-17T11:12:40.549Z,97592.52
2019-03-17T11:15:19.001Z,97590.60
2019-03-17T11:17:45.855Z,97594.72
2019-03-17T11:20:13.746Z,97591.41
2019-03-17T11:22:41.047Z,97588.78
2019-03-17T11:25:15.291Z,97583.83
2019-03-17T11:27:43.822Z,97585.61
2019-03-17T11:30:16.240Z,97588.34
2019-03-17T11:32:43.095Z,97578.97
2019-03-17T11:35:10.268Z,97598.37
2019-03-17T11:37:37.348Z,97598.60
2019-03-17T11:40:12.956Z,97601.80
2019-03-17T11:42:39.777Z,97600.85
2019-03-17T11:45:14.336Z,97591.01
2019-03-17T11:47:42.615Z,97594.45
2019-03-17T11:50:15.856Z,97591.16
2019-03-17T11:52:42.964Z,97603.25
2019-03-17T11:55:11.024Z,97596.91
2019-03-17T11:57:38.434Z,97608.27
2019-03-17T12:00:16.038Z,97604.80
2019-03-17T12:02:42.854Z,97607.25
2019-03-17T12:05:10.215Z,97620.31
2019-03-17T12:07:37.083Z,97638.76
2019-03-17T12:10:16.889Z,97635.91
2019-03-17T12:12:43.986Z,97642.80
2019-03-17T12:15:26.781Z,97629.44
2019-03-17T12:17:54.035Z,97638.50
2019-03-17T12:20:21.114Z,97634.56
2019-03-17T12:22:49.889Z,97646.25
2019-03-17T12:25:18.059Z,97641.01
2019-03-17T12:27:45.117Z,97647.58
2019-03-17T12:30:20.481Z,97659.03
2019-03-17T12:32:48.872Z,97656.28
2019-03-17T12:35:16.254Z,97666.20
2019-03-17T12:37:45.329Z,97668.22
2019-03-17T12:40:12.547Z,97674.89
2019-03-17T12:42:39.620Z,97660.37
2019-03-17T12:45:08.811Z,97666.02
2019-03-17T12:47:37.387Z,97684.89
2019-03-17T12:50:12.757Z,97684.36
2019-03-17T12:52:40.214Z,97713.82
2019-03-17T12:55:07.857Z,97731.53
2019-03-17T12:57:34.815Z,97753.57
2019-03-17T13:00:10.463Z,97778.28
2019-03-17T13:02:40.279Z,97782.59
2019-03-17T13:05:08.533Z,97796.95
2019-03-17T13:07:35.547Z,97800.23
2019-03-17T13:10:15.873Z,97802.16
2019-03-17T13:12:41.419Z,97803.16
2019-03-17T13:15:10.978Z,97809.27
2019-03-17T13:17:37.738Z,97824.48
2019-03-17T13:20:15.766Z,97847.15
2019-03-17T13:22:43.193Z,97854.44
2019-03-17T13:25:11.375Z,97876.83
2019-03-17T13:27:38.511Z,97889.60
2019-03-17T13:30:13.570Z,97896.09
2019-03-17T13:32:40.351Z,97909.30
2019-03-17T13:35:09.174Z,97925.84
2019-03-17T13:37:36.302Z,97955.78
2019-03-17T13:40:28.714Z,97970.23
2019-03-17T13:42:48.164Z,97969.52
2019-03-17T13:45:15.612Z,97979.48
2019-03-17T13:47:42.590Z,97957.23
2019-03-17T13:50:16.219Z,97980.68
2019-03-17T13:52:43.252Z,97968.69
2019-03-17T13:55:10.236Z,97998.89
2019-03-17T13:57:38.521Z,98008.36
2019-03-17T14:00:10.536Z,97999.80
2019-03-17T14:02:37.709Z,97985.66
2019-03-17T14:05:04.877Z,98004.92
2019-03-17T14:07:31.778Z,98020.65
2019-03-17T14:09:58.737Z,98018.11
2019-03-17T14:12:26.072Z,98016.38
2019-03-17T14:14:52.956Z,98019.55
2019-03-17T14:17:20.068Z,98019.24
2019-03-17T14:19:47.229Z,98013.92
2019-03-17T14:22:17.131Z,98015.12
2019-03-17T14:24:43.944Z,98011.96
2019-03-17T14:27:10.800Z,98011.58
2019-03-17T14:29:37.906Z,98017.83
2019-03-17T14:32:05.029Z,98017.58
2019-03-17T14:34:32.219Z,98007.78
2019-03-17T14:36:59.214Z,98008.91
2019-03-17T14:39:26.387Z,97998.06
2019-03-17T14:41:53.296Z,97980.06
2019-03-17T14:44:20.221Z,97966.28
2019-03-17T14:46:47.360Z,97995.27
2019-03-17T14:49:14.119Z,97986.92
2019-03-17T14:51:40.868Z,97988.77
2019-03-17T14:54:07.838Z,97982.63
2019-03-17T14:56:34.744Z,97993.67
2019-03-17T14:59:03.786Z,97988.64
2019-03-17T15:01:30.684Z,98007.12
2019-03-17T15:03:58.078Z,97996.33
2019-03-17T15:06:25.195Z,97991.53
2019-03-17T15:08:51.996Z,97996.47
2019-03-17T15:11:18.799Z,98000.23
2019-03-17T15:13:46.168Z,98000.02
2019-03-17T15:16:13.183Z,98003.81
2019-03-17T15:18:40.253Z,98007.33
2019-03-17T15:21:07.523Z,98009.47
2019-03-17T15:23:34.530Z,97998.72
2019-03-17T15:26:01.296Z,97987.80
2019-03-17T15:28:28.889Z,97988.58
2019-03-17T15:31:10.275Z,97993.08
2019-03-17T15:33:24.601Z,97987.72
2019-03-17T15:35:51.359Z,97997.78
2019-03-17T15:38:18.219Z,98002.92
2019-03-17T15:40:44.973Z,98014.47
2019-03-17T15:43:11.837Z,98026.75
2019-03-17T15:45:39.100Z,98042.17
2019-03-17T15:48:05.993Z,98036.63
2019-03-17T15:50:33.038Z,98029.59
2019-03-17T15:53:00.322Z,98044.84
2019-03-17T15:55:30.213Z,98052.63
2019-03-17T15:57:57.087Z,98074.13
2019-03-17T16:00:26.626Z,98081.42
2019-03-17T16:02:53.998Z,98073.63
2019-03-17T16:05:22.031Z,98078.93
2019-03-17T16:07:48.997Z,98082.23
2019-03-17T16:10:21.062Z,98077.12
2019-03-17T16:12:51.795Z,98075.23
2019-03-17T16:15:18.897Z,98079.08
2019-03-17T16:17:46.363Z,98071.22
2019-03-17T16:20:22.856Z,98073.80
2019-03-17T16:22:49.729Z,98063.91
2019-03-17T16:25:30.155Z,98063.63
2019-03-17T16:27:57.200Z,98073.11
2019-03-17T16:30:29.319Z,98075.28
2019-03-17T16:32:56.315Z,98086.97
2019-03-17T16:35:25.839Z,98080.72
2019-03-17T16:37:55.820Z,98088.81
2019-03-17T16:40:28.549Z,98106.68
2019-03-17T16:42:55.534Z,98120.02
2019-03-17T16:45:22.584Z,98119.05
2019-03-17T16:47:50.030Z,98126.39
2019-03-17T16:50:20.711Z,98139.05
2019-03-17T16:52:47.651Z,98153.39
2019-03-17T16:55:15.892Z,98163.73
2019-03-17T16:57:43.040Z,98173.78
2019-03-17T17:00:19.598Z,98169.47
2019-03-17T17:02:47.935Z,98174.80
2019-03-17T17:05:17.981Z,98170.25
2019-03-17T17:07:45.533Z,98174.38
2019-03-17T17:10:21.107Z,98172.84
2019-03-17T17:12:48.201Z,98175.89
2019-03-17T17:15:30.866Z,98154.03
2019-03-17T17:17:58.297Z,98146.25
2019-03-17T17:20:40.101Z,98150.22
2019-03-17T17:23:06.877Z,98162.28
2019-03-17T17:25:34.244Z,98165.48
2019-03-17T17:28:02.096Z,98164.54
2019-03-17T17:30:28.985Z,98174.74
2019-03-17T17:32:56.209Z,98194.22
2019-03-17T17:35:23.258Z,98188.43
2019-03-17T17:37:50.050Z,98194.59
2019-03-17T17:40:23.485Z,98191.38
2019-03-17T17:42:50.571Z,98206.27
2019-03-17T17:45:24.508Z,98222.70
2019-03-17T17:47:51.636Z,98235.94
2019-03-17T17:50:23.589Z,98244.08
2019-03-17T17:52:50.746Z,98253.70
2019-03-17T17:55:17.760Z,98252.10
2019-03-17T17:57:45.002Z,98223.06
2019-03-17T18:00:19.497Z,98230.34
2019-03-17T18:02:46.467Z,98236.64
2019-03-17T18:05:13.723Z,98246.70
2019-03-17T18:07:40.806Z,98230.88
2019-03-17T18:10:11.761Z,98241.13
2019-03-17T18:12:38.552Z,98252.25
2019-03-17T18:15:14.875Z,98256.34
2019-03-17T18:17:42.123Z,98241.25
2019-03-17T18:20:11.928Z,98243.38
2019-03-17T18:22:38.864Z,98244.98
2019-03-17T18:25:17.074Z,98243.59
2019-03-17T18:27:44.016Z,98242.30
2019-03-17T18:30:23.903Z,98251.97
2019-03-17T18:32:53.225Z,98279.02
2019-03-17T18:35:20.232Z,98295.48
2019-03-17T18:37:51.225Z,98306.59
2019-03-17T18:40:24.598Z,98305.87
2019-03-17T18:42:51.887Z,98300.75
2019-03-17T18:45:29.668Z,98312.61
2019-03-17T18:47:58.974Z,98300.38
2019-03-17T18:50:25.818Z,98330.02
2019-03-17T18:52:52.801Z,98318.09
2019-03-17T18:55:19.610Z,98314.20
2019-03-17T18:57:46.577Z,98309.08
2019-03-17T19:00:21.566Z,98327.69
2019-03-17T19:02:48.657Z,98327.73
2019-03-17T19:05:19.633Z,98337.95
2019-03-17T19:07:45.640Z,98366.14
2019-03-17T19:10:18.741Z,98378.55
2019-03-17T19:12:46.404Z,98379.16
2019-03-17T19:15:19.881Z,98379.72
2019-03-17T19:17:50.371Z,98367.91
2019-03-17T19:20:19.314Z,98374.34
2019-03-17T19:22:46.372Z,98357.55
2019-03-17T19:25:17.919Z,98343.30
2019-03-17T19:27:45.311Z,98352.20
2019-03-17T19:30:16.238Z,98368.38
2019-03-17T19:32:44.229Z,98387.29
2019-03-17T19:35:11.354Z,98398.69
2019-03-17T19:37:41.809Z,98401.73
2019-03-17T19:40:16.104Z,98398.73
2019-03-17T19:42:44.073Z,98415.86
2019-03-17T19:45:11.555Z,98406.52
2019-03-17T19:47:39.169Z,98402.22
2019-03-17T19:50:15.183Z,98417.12
2019-03-17T19:52:42.290Z,98435.41
2019-03-17T19:55:10.585Z,98437.55
2019-03-17T19:57:37.475Z,98434.36
2019-03-17T20:00:19.278Z,98442.48
2019-03-17T20:02:47.762Z,98439.00
2019-03-17T20:05:15.229Z,98448.95
2019-03-17T20:07:42.060Z,98440.23
2019-03-17T20:10:28.379Z,98446.67
2019-03-17T20:12:56.373Z,98455.88
2019-03-17T20:15:23.555Z,98480.45
2019-03-17T20:17:50.311Z,98493.59
2019-03-17T20:20:17.315Z,98500.66
2019-03-17T20:22:44.167Z,98494.22
2019-03-17T20:25:11.515Z,98507.95
2019-03-17T20:27:38.399Z,98511.27
2019-03-17T20:30:16.324Z,98512.84
2019-03-17T20:32:43.630Z,98507.45
2019-03-17T20:35:12.032Z,98503.97
2019-03-17T20:37:38.916Z,98514.19
2019-03-17T20:40:10.458Z,98508.28
2019-03-17T20:42:37.319Z,98516.86
2019-03-17T20:45:07.467Z,98516.86
2019-03-17T20:47:34.379Z,98523.64
2019-03-17T20:50:01.877Z,98546.30
2019-03-17T20:52:29.096Z,98545.24
2019-03-17T20:54:56.240Z,98544.13
2019-03-17T20:57:22.992Z,98539.03
2019-03-17T20:59:50.485Z,98543.10
2019-03-17T21:02:17.596Z,98552.77
2019-03-17T21:04:44.396Z,98556.83
2019-03-17T21:07:12.884Z,98569.45
2019-03-17T21:09:39.868Z,98575.95
2019-03-17T21:12:06.942Z,98579.20
2019-03-17T21:14:33.711Z,98575.43
2019-03-17T21:17:00.652Z,98578.92
2019-03-17T21:19:28.092Z,98577.58
2019-03-17T21:21:55.083Z,98579.47
2019-03-17T21:24:21.840Z,98577.58
2019-03-17T21:26:49.101Z,98577.02
2019-03-17T21:29:16.074Z,98581.88
2019-03-17T21:31:43.373Z,98583.23
2019-03-17T21:34:10.284Z,98588.60
2019-03-17T21:36:38.826Z,98582.42
2019-03-17T21:39:06.448Z,98580.27
2019-03-17T21:41:34.107Z,98583.50
2019-03-17T21:44:00.927Z,98585.13
2019-03-17T21:46:28.123Z,98580.84
2019-03-17T21:48:54.875Z,98580.05
2019-03-17T21:51:21.648Z,98577.62
2019-03-17T21:53:48.445Z,98584.88
2019-03-17T21:56:15.596Z,98579.48
2019-03-17T21:58:42.399Z,98588.39
2019-03-17T22:01:09.159Z,98591.60
2019-03-17T22:03:35.937Z,98589.43
2019-03-17T22:06:03.359Z,98592.14
2019-03-17T22:08:31.434Z,98596.46
2019-03-17T22:10:58.371Z,98608.05
2019-03-17T22:13:25.258Z,98601.03
2019-03-17T22:15:52.001Z,98605.61
2019-03-17T22:18:18.766Z,98608.57
2019-03-17T22:20:45.501Z,98606.42
2019-03-17T22:23:12.355Z,98603.72
2019-03-17T22:25:39.219Z,98602.38
2019-03-17T22:28:08.505Z,98597.78
2019-03-17T22:30:35.481Z,98608.56
2019-03-17T22:33:02.427Z,98600.22
2019-03-17T22:35:29.493Z,98601.03
2019-03-17T22:37:56.786Z,98609.91
2019-03-17T22:40:23.620Z,98611.78
2019-03-17T22:42:50.375Z,98612.34
2019-03-17T22:45:17.655Z,98613.42
2019-03-17T22:47:44.827Z,98615.06
2019-03-17T22:50:15.135Z,98608.31
2019-03-17T22:52:42.438Z,98605.89
2019-03-17T22:55:10.394Z,98619.61
2019-03-17T22:57:37.160Z,98622.04
2019-03-17T23:00:09.778Z,98625.00
2019-03-17T23:02:36.877Z,98626.59
2019-03-17T23:05:06.787Z,98629.83
2019-03-17T23:07:33.648Z,98629.85
2019-03-17T23:10:00.569Z,98633.88
2019-03-17T23:12:27.384Z,98632.26
2019-03-17T23:14:54.153Z,98635.47
2019-03-17T23:17:20.905Z,98629.84
2019-03-17T23:19:48.075Z,98637.91
2019-03-17T23:22:14.838Z,98637.36
2019-03-17T23:24:41.747Z,98639.77
2019-03-17T23:27:08.745Z,98642.47
2019-03-17T23:29:35.668Z,98647.30
2019-03-17T23:32:03.587Z,98636.29
2019-03-17T23:34:30.846Z,98642.47
2019-03-17T23:36:57.760Z,98644.61
2019-03-17T23:39:24.845Z,98646.22
2019-03-17T23:41:51.936Z,98651.34
2019-03-17T23:44:19.042Z,98648.66
2019-03-17T23:46:45.981Z,98652.97
2019-03-17T23:49:12.843Z,98658.38
2019-03-17T23:51:39.634Z,98659.43
2019-03-17T23:54:06.424Z,98655.95
2019-03-17T23:56:33.589Z,98657.56
2019-03-17T23:59:00.355Z,98656.75
